Time;durP1;ratioP1;P1;durP2;ratioP2;P2;SDS_P1;SDS_P2;PMS_P1;PMS_P2;Temp;Humidity;BMP_temperature;BMP_pressure;BME280_temperature;BME280_humidity;BME280_pressure;Samples;Min_cycle;Max_cycle;Signal;HPM_P1;HPM_P2
2022/02/25 00:02:23;;;;;;;5.13;2.22;;;4.90;74.60;;;;;;4998686;28;20178;-90
2022/02/25 00:04:48;;;;;;;3.30;2.10;;;4.90;74.30;;;;;;5014965;28;20233;-89
2022/02/25 00:07:14;;;;;;;2.57;1.90;;;4.90;74.10;;;;;;4999280;28;20487;-90
2022/02/25 00:09:40;;;;;;;12.23;2.63;;;4.80;74.10;;;;;;5000311;28;20740;-90
2022/02/25 00:12:06;;;;;;;3.50;1.73;;;4.80;73.90;;;;;;5002681;28;20424;-89
2022/02/25 00:14:32;;;;;;;6.43;1.80;;;4.70;73.80;;;;;;5006273;28;20269;-89
2022/02/25 00:16:58;;;;;;;7.45;2.40;;;4.80;74.10;;;;;;5006363;28;20421;-89
2022/02/25 00:19:24;;;;;;;9.50;2.10;;;4.70;74.00;;;;;;5003321;28;20704;-89
2022/02/25 00:21:51;;;;;;;3.28;1.77;;;4.70;73.70;;;;;;5018870;28;20183;-89
2022/02/25 00:24:17;;;;;;;5.63;2.30;;;4.70;73.80;;;;;;4997447;28;20627;-90
2022/02/25 00:26:43;;;;;;;3.97;1.70;;;4.70;73.70;;;;;;5016346;28;20277;-89
2022/02/25 00:29:08;;;;;;;5.30;1.93;;;4.70;73.80;;;;;;4998442;28;20454;-90
2022/02/25 00:31:34;;;;;;;5.53;2.40;;;4.60;73.70;;;;;;5000749;28;20197;-90
2022/02/25 00:34:00;;;;;;;4.50;2.43;;;4.60;73.80;;;;;;5003828;28;20688;-89
2022/02/25 00:36:26;;;;;;;4.97;2.77;;;4.60;73.80;;;;;;5004710;28;20425;-90
2022/02/25 00:38:52;;;;;;;14.23;2.53;;;4.70;74.00;;;;;;5005692;28;20178;-88
2022/02/25 00:41:18;;;;;;;3.00;2.10;;;4.60;74.00;;;;;;5024341;28;20209;-88
2022/02/25 00:43:44;;;;;;;2.65;2.35;;;4.70;74.00;;;;;;5002822;28;20457;-89
2022/02/25 00:46:10;;;;;;;3.28;2.10;;;4.70;74.00;;;;;;5004070;28;20185;-89
2022/02/25 00:48:36;;;;;;;3.43;1.77;;;4.60;74.00;;;;;;5003241;28;20206;-90
2022/02/25 00:51:02;;;;;;;6.00;1.70;;;4.70;74.20;;;;;;5000106;28;20269;-90
2022/02/25 00:53:28;;;;;;;4.70;2.20;;;4.70;74.30;;;;;;5012602;28;20209;-90
2022/02/25 00:55:54;;;;;;;5.40;2.20;;;4.70;74.40;;;;;;5006497;28;20183;-91
2022/02/25 00:58:21;;;;;;;11.68;2.42;;;4.60;74.40;;;;;;4998748;28;20174;-90
2022/02/25 01:00:46;;;;;;;5.35;2.05;;;4.50;74.70;;;;;;4998350;28;20209;-90
2022/02/25 01:03:12;;;;;;;16.30;1.93;;;4.50;74.80;;;;;;4997124;28;20202;-89
2022/02/25 01:05:40;;;;;;;8.00;2.58;;;4.50;74.80;;;;;;4997990;28;20232;-89
2022/02/25 01:08:07;;;;;;;3.97;2.08;;;4.50;74.90;;;;;;5017053;28;20681;-89
2022/02/25 01:10:35;;;;;;;3.47;1.90;;;4.50;75.00;;;;;;5017345;28;20202;-90
2022/02/25 01:13:01;;;;;;;10.05;2.08;;;4.40;75.00;;;;;;5001054;28;20217;-89
2022/02/25 01:15:27;;;;;;;3.47;1.65;;;4.50;75.10;;;;;;5031063;28;20174;-88
2022/02/25 01:17:53;;;;;;;8.48;1.77;;;4.50;75.20;;;;;;5028520;28;20208;-87
2022/02/25 01:20:18;;;;;;;11.30;3.43;;;4.50;75.20;;;;;;5022189;28;20253;-90
2022/02/25 01:22:45;;;;;;;10.63;2.30;;;4.50;75.30;;;;;;4985910;28;20217;-89
2022/02/25 01:25:12;;;;;;;5.60;2.03;;;4.60;75.30;;;;;;5001995;28;20429;-90
2022/02/25 01:27:38;;;;;;;2.00;1.80;;;4.50;75.20;;;;;;5002415;28;20682;-89
2022/02/25 01:30:05;;;;;;;3.03;1.90;;;4.40;75.20;;;;;;5003722;28;20209;-90
2022/02/25 01:32:31;;;;;;;3.47;3.00;;;4.40;75.20;;;;;;5021052;28;20421;-90
2022/02/25 01:34:58;;;;;;;7.93;1.67;;;4.60;75.10;;;;;;5023452;28;20262;-90
2022/02/25 01:37:25;;;;;;;7.25;1.90;;;4.60;75.00;;;;;;5012328;28;20413;-88
2022/02/25 01:39:51;;;;;;;9.70;3.03;;;4.40;75.10;;;;;;5011218;28;20260;-87
2022/02/25 01:42:17;;;;;;;3.83;1.20;;;4.40;75.30;;;;;;5029207;28;20178;-87
2022/02/25 01:44:43;;;;;;;6.45;1.70;;;4.40;75.40;;;;;;5006161;28;20558;-87
2022/02/25 01:47:14;;;;;;;8.00;2.30;;;4.50;75.50;;;;;;5005605;28;20246;-87
2022/02/25 01:49:41;;;;;;;6.95;2.45;;;4.50;75.40;;;;;;5022440;28;20200;-86
2022/02/25 01:52:15;;;;;;;7.47;2.17;;;4.40;75.30;;;;;;5002102;28;20233;-86
2022/02/25 01:54:43;;;;;;;6.63;2.17;;;4.30;75.40;;;;;;5001146;28;20185;-87
2022/02/25 01:57:11;;;;;;;7.10;2.33;;;4.30;75.40;;;;;;5000900;28;20190;-87
2022/02/25 01:59:37;;;;;;;14.52;2.05;;;4.40;75.60;;;;;;5001431;28;20213;-86
2022/02/25 02:02:03;;;;;;;8.30;1.42;;;4.30;75.60;;;;;;5001755;28;20178;-87
2022/02/25 02:04:30;;;;;;;5.90;1.90;;;4.40;75.70;;;;;;5017801;28;20730;-87
2022/02/25 02:06:56;;;;;;;4.13;1.70;;;4.30;75.80;;;;;;5000765;28;20729;-86
2022/02/25 02:09:22;;;;;;;4.38;1.75;;;4.40;75.80;;;;;;4999744;28;20210;-87
2022/02/25 02:11:52;;;;;;;10.35;2.50;;;4.40;75.80;;;;;;5000174;28;20202;-87
2022/02/25 02:14:20;;;;;;;5.50;1.92;;;4.30;75.80;;;;;;4999489;28;20195;-88
2022/02/25 02:16:49;;;;;;;4.30;2.13;;;4.30;75.80;;;;;;5017502;28;20201;-87
2022/02/25 02:19:16;;;;;;;11.00;2.30;;;4.30;75.80;;;;;;5000618;28;20186;-88
2022/02/25 02:21:53;;;;;;;8.57;2.08;;;4.40;75.90;;;;;;5001381;28;20277;-87
2022/02/25 02:24:20;;;;;;;13.52;2.63;;;4.50;75.80;;;;;;5001660;28;20198;-87
2022/02/25 02:26:47;;;;;;;10.20;3.55;;;4.50;75.60;;;;;;5000394;28;20186;-87
2022/02/25 02:29:13;;;;;;;3.97;1.63;;;4.40;75.70;;;;;;4984364;28;20263;-87
2022/02/25 02:31:40;;;;;;;6.25;2.13;;;4.50;75.70;;;;;;5002520;28;20175;-87
2022/02/25 02:34:08;;;;;;;7.22;2.38;;;4.40;75.70;;;;;;5005176;28;20195;-87
2022/02/25 02:36:34;;;;;;;5.18;1.60;;;4.30;75.70;;;;;;5022357;28;20175;-88
2022/02/25 02:39:00;;;;;;;6.40;1.80;;;4.20;75.80;;;;;;5001217;28;20189;-87
2022/02/25 02:41:26;;;;;;;7.60;2.05;;;4.20;76.00;;;;;;5001097;28;20183;-88
2022/02/25 02:43:52;;;;;;;5.73;1.50;;;4.20;76.10;;;;;;4999860;28;20280;-87
2022/02/25 02:46:18;;;;;;;7.32;3.38;;;4.30;76.20;;;;;;5000223;28;20425;-87
2022/02/25 02:48:44;;;;;;;11.60;2.37;;;4.40;76.10;;;;;;4999772;28;20206;-87
2022/02/25 02:51:10;;;;;;;8.63;2.03;;;4.40;76.00;;;;;;5000277;28;20178;-87
2022/02/25 02:53:37;;;;;;;9.88;1.70;;;4.60;75.90;;;;;;4999013;28;20958;-87
2022/02/25 02:56:04;;;;;;;5.40;1.80;;;4.50;75.80;;;;;;4999397;28;20194;-88
2022/02/25 02:58:30;;;;;;;5.13;1.50;;;4.40;75.60;;;;;;4999115;28;20542;-87
2022/02/25 03:01:00;;;;;;;9.48;1.95;;;4.40;75.60;;;;;;5018073;28;20247;-87
2022/02/25 03:03:26;;;;;;;6.70;2.38;;;4.30;75.80;;;;;;5003026;28;20195;-87
2022/02/25 03:05:51;;;;;;;10.20;2.10;;;4.40;75.90;;;;;;5000363;28;20182;-87
2022/02/25 03:08:17;;;;;;;14.47;2.73;;;4.40;75.90;;;;;;5003003;28;20187;-87
2022/02/25 03:10:44;;;;;;;11.53;2.17;;;4.50;75.70;;;;;;5007747;28;20422;-88
2022/02/25 03:13:12;;;;;;;6.13;2.53;;;4.50;75.60;;;;;;5005861;28;20441;-88
2022/02/25 03:15:38;;;;;;;10.95;1.40;;;4.50;75.80;;;;;;5004535;28;20183;-87
2022/02/25 03:18:04;;;;;;;18.08;3.03;;;4.50;75.70;;;;;;5002287;28;20174;-86
2022/02/25 03:20:30;;;;;;;9.02;3.70;;;4.50;75.70;;;;;;5018581;28;20187;-87
2022/02/25 03:22:56;;;;;;;6.17;2.10;;;4.40;75.90;;;;;;5016261;28;20207;-87
2022/02/25 03:25:23;;;;;;;7.13;2.50;;;4.60;76.00;;;;;;4998540;28;20453;-86
2022/02/25 03:27:49;;;;;;;10.38;2.28;;;4.70;75.90;;;;;;4998746;28;20685;-86
2022/02/25 03:30:16;;;;;;;6.57;2.88;;;4.50;75.80;;;;;;4999179;28;20579;-86
2022/02/25 03:32:42;;;;;;;6.65;2.20;;;4.60;75.80;;;;;;4998208;28;20202;-87
2022/02/25 03:35:10;;;;;;;10.80;2.40;;;4.60;75.90;;;;;;4998388;28;20179;-86
2022/02/25 03:37:36;;;;;;;7.20;1.55;;;4.60;75.80;;;;;;5015686;28;20174;-87
2022/02/25 03:40:03;;;;;;;7.93;2.10;;;4.60;75.70;;;;;;4997865;28;20270;-87
2022/02/25 03:42:29;;;;;;;10.55;2.60;;;4.60;75.60;;;;;;4998530;28;20445;-87
2022/02/25 03:44:56;;;;;;;5.55;2.00;;;4.70;75.80;;;;;;4999447;28;20187;-86
2022/02/25 03:47:28;;;;;;;3.50;1.77;;;4.60;75.80;;;;;;4998655;28;20265;-87
2022/02/25 03:49:54;;;;;;;15.85;2.05;;;4.70;75.80;;;;;;4999301;28;20453;-86
2022/02/25 03:52:19;;;;;;;14.17;2.73;;;4.60;75.70;;;;;;5002571;28;20183;-86
2022/02/25 03:54:45;;;;;;;5.90;2.03;;;4.60;75.80;;;;;;5001088;28;20418;-86
2022/02/25 03:57:11;;;;;;;7.87;2.40;;;4.80;75.70;;;;;;4998258;28;20210;-87
2022/02/25 03:59:37;;;;;;;7.53;2.00;;;4.90;75.20;;;;;;5004729;28;20182;-87
2022/02/25 04:02:03;;;;;;;6.00;2.93;;;4.80;75.10;;;;;;5014452;28;20502;-88
2022/02/25 04:04:29;;;;;;;10.27;2.42;;;4.80;75.30;;;;;;5015718;28;20221;-87
2022/02/25 04:06:55;;;;;;;7.93;2.07;;;4.80;75.00;;;;;;5006750;28;20205;-87
2022/02/25 04:09:22;;;;;;;8.83;2.53;;;4.80;75.10;;;;;;4998939;28;20202;-87
2022/02/25 04:11:49;;;;;;;12.63;2.70;;;4.90;75.00;;;;;;5015417;28;20417;-87
2022/02/25 04:14:18;;;;;;;9.57;1.65;;;4.90;74.70;;;;;;4997165;28;20213;-87
2022/02/25 04:16:47;;;;;;;16.80;2.03;;;4.70;74.70;;;;;;4997702;28;20280;-87
2022/02/25 04:19:12;;;;;;;14.60;2.70;;;4.70;75.00;;;;;;4997761;28;20263;-87
2022/02/25 04:21:38;;;;;;;5.87;1.70;;;4.80;75.00;;;;;;4998169;28;20202;-87
2022/02/25 04:24:04;;;;;;;5.68;1.83;;;4.80;74.90;;;;;;4997206;28;20199;-87
2022/02/25 04:26:30;;;;;;;5.38;1.52;;;4.70;75.10;;;;;;4997302;28;20185;-87
2022/02/25 04:28:56;;;;;;;7.00;2.03;;;4.70;75.20;;;;;;4997330;28;20199;-87
2022/02/25 04:31:22;;;;;;;8.37;2.70;;;4.80;75.40;;;;;;4997580;28;20178;-87
2022/02/25 04:33:47;;;;;;;8.37;1.63;;;4.80;75.50;;;;;;4997247;28;20589;-86
2022/02/25 04:36:14;;;;;;;9.73;2.30;;;4.70;75.50;;;;;;4999129;28;20214;-86
2022/02/25 04:38:40;;;;;;;5.50;2.38;;;4.80;75.40;;;;;;5017471;28;20245;-87
2022/02/25 04:41:06;;;;;;;10.97;2.93;;;4.80;75.20;;;;;;5003783;28;20254;-87
2022/02/25 04:43:32;;;;;;;6.07;2.15;;;4.80;75.10;;;;;;5002809;28;20492;-87
2022/02/25 04:45:59;;;;;;;27.75;3.22;;;4.90;75.20;;;;;;5002477;28;20208;-87
2022/02/25 04:48:26;;;;;;;9.95;2.85;;;4.90;75.10;;;;;;5016887;28;20186;-87
2022/02/25 04:50:53;;;;;;;9.90;2.58;;;5.00;74.50;;;;;;5014746;28;20190;-87
2022/02/25 04:53:19;;;;;;;9.80;2.10;;;5.00;74.40;;;;;;5020322;28;20190;-87
2022/02/25 04:55:46;;;;;;;14.07;2.70;;;5.10;74.50;;;;;;5025756;28;20718;-88
2022/02/25 04:58:16;;;;;;;10.95;2.00;;;5.10;74.30;;;;;;4997834;28;20178;-87
2022/02/25 05:00:43;;;;;;;7.45;1.98;;;5.30;74.10;;;;;;5014664;28;20754;-87
2022/02/25 05:03:10;;;;;;;6.45;2.20;;;5.40;73.60;;;;;;4996996;28;20640;-87
2022/02/25 05:05:35;;;;;;;5.43;2.88;;;5.40;73.40;;;;;;4997964;28;20186;-87
2022/02/25 05:08:01;;;;;;;5.70;2.57;;;5.30;73.10;;;;;;4998975;28;20253;-87
2022/02/25 05:10:28;;;;;;;7.27;2.20;;;5.10;73.30;;;;;;5000134;28;20202;-87
2022/02/25 05:12:54;;;;;;;11.77;2.20;;;5.10;73.40;;;;;;5000412;28;20313;-87
2022/02/25 05:20:48;;;;;;;6.18;2.47;;;5.50;73.60;;;;;;5016719;28;20178;-87
2022/02/25 05:23:15;;;;;;;9.98;2.88;;;5.50;73.20;;;;;;5015142;28;20281;-87
2022/02/25 05:25:41;;;;;;;11.52;4.25;;;5.50;73.30;;;;;;4997265;28;20183;-85
2022/02/25 05:28:07;;;;;;;15.65;2.85;;;5.30;73.20;;;;;;5014913;28;20186;-87
2022/02/25 05:30:33;;;;;;;9.93;2.17;;;5.40;73.40;;;;;;4997299;28;20546;-88
2022/02/25 05:32:59;;;;;;;5.72;1.85;;;5.30;73.60;;;;;;5018712;28;20520;-87
2022/02/25 05:35:25;;;;;;;9.97;2.40;;;5.40;73.60;;;;;;5015245;28;20277;-86
2022/02/25 05:37:51;;;;;;;12.43;1.48;;;5.40;73.40;;;;;;5014895;28;20190;-87
2022/02/25 05:40:18;;;;;;;9.10;2.22;;;5.50;73.40;;;;;;4997506;28;20193;-86
2022/02/25 05:42:45;;;;;;;11.32;2.63;;;5.40;73.40;;;;;;5000862;28;20210;-86
2022/02/25 05:45:12;;;;;;;11.77;2.35;;;5.40;73.60;;;;;;5014964;28;20191;-88
2022/02/25 05:47:37;;;;;;;8.35;3.65;;;5.50;73.70;;;;;;5001467;28;20213;-87
2022/02/25 05:50:06;;;;;;;16.90;3.50;;;5.40;73.90;;;;;;4997511;28;20222;-87
2022/02/25 05:52:32;;;;;;;12.73;2.75;;;5.40;74.30;;;;;;4997172;28;20571;-88
2022/02/25 05:54:57;;;;;;;13.57;2.47;;;5.40;74.70;;;;;;5014728;28;20171;-87
2022/02/25 05:57:23;;;;;;;19.27;2.60;;;5.50;75.00;;;;;;4998504;28;20471;-87
2022/02/25 05:59:49;;;;;;;10.93;2.27;;;5.50;75.10;;;;;;4997459;28;20178;-87
2022/02/25 06:02:15;;;;;;;12.17;2.30;;;5.60;75.30;;;;;;4999438;28;20189;-88
2022/02/25 06:04:40;;;;;;;15.93;3.33;;;5.50;75.50;;;;;;5001804;28;20540;-87
2022/02/25 06:07:06;;;;;;;11.30;2.67;;;5.50;75.40;;;;;;5006189;28;20448;-88
2022/02/25 06:09:32;;;;;;;11.10;3.20;;;5.70;75.20;;;;;;5024763;28;20634;-87
2022/02/25 06:11:58;;;;;;;6.18;2.03;;;5.60;75.00;;;;;;5007250;28;20426;-87
2022/02/25 06:14:24;;;;;;;9.13;2.43;;;5.70;74.90;;;;;;5006172;28;20234;-88
2022/02/25 06:16:49;;;;;;;8.27;2.70;;;5.70;74.90;;;;;;5027044;28;20170;-87
2022/02/25 06:19:15;;;;;;;10.50;1.97;;;5.80;74.70;;;;;;5021159;28;20178;-87
2022/02/25 06:21:41;;;;;;;11.50;3.20;;;5.70;74.50;;;;;;5003023;28;20183;-87
2022/02/25 06:24:06;;;;;;;16.73;4.23;;;5.60;74.40;;;;;;5019738;28;20202;-87
2022/02/25 06:26:32;;;;;;;9.20;2.40;;;5.60;74.50;;;;;;5002269;28;20178;-86
2022/02/25 06:28:59;;;;;;;8.90;2.17;;;5.60;74.70;;;;;;5000626;28;20457;-87
2022/02/25 06:31:32;;;;;;;9.32;3.00;;;5.70;74.80;;;;;;5002324;28;20917;-86
2022/02/25 06:33:58;;;;;;;11.30;3.97;;;5.90;74.90;;;;;;4999416;28;20198;-86
2022/02/25 06:36:23;;;;;;;7.60;2.40;;;5.80;74.90;;;;;;5000010;28;20684;-86
2022/02/25 06:38:49;;;;;;;5.90;2.00;;;5.80;75.50;;;;;;5000142;28;20182;-86
2022/02/25 06:41:16;;;;;;;19.77;3.90;;;5.70;75.90;;;;;;5000819;28;20178;-87
2022/02/25 06:43:42;;;;;;;22.48;3.50;;;5.90;76.10;;;;;;5000345;28;20473;-87
2022/02/25 06:46:11;;;;;;;9.20;1.90;;;5.90;75.80;;;;;;5007853;28;20183;-87
2022/02/25 06:48:39;;;;;;;24.38;2.80;;;5.90;75.80;;;;;;5015798;28;20187;-87
2022/02/25 06:51:05;;;;;;;19.33;3.08;;;5.70;75.90;;;;;;5017866;28;20155;-86
2022/02/25 06:53:30;;;;;;;12.95;3.22;;;5.70;76.30;;;;;;5012420;28;20198;-85
2022/02/25 06:55:57;;;;;;;8.50;2.60;;;5.80;76.40;;;;;;5001956;28;20228;-87
2022/02/25 06:58:23;;;;;;;16.38;2.63;;;5.80;76.40;;;;;;5000500;28;20499;-87
2022/02/25 07:00:48;;;;;;;15.40;2.70;;;5.80;76.40;;;;;;5018605;28;20194;-86
2022/02/25 07:03:14;;;;;;;15.80;2.90;;;5.90;76.50;;;;;;5000502;28;20206;-86
2022/02/25 07:05:40;;;;;;;16.73;3.10;;;6.00;76.40;;;;;;5001943;28;20254;-86
2022/02/25 07:08:07;;;;;;;15.32;2.60;;;5.90;76.20;;;;;;5001310;28;20189;-86
2022/02/25 07:10:35;;;;;;;15.18;3.42;;;5.90;76.20;;;;;;4983915;28;20211;-87
2022/02/25 07:13:02;;;;;;;11.63;2.72;;;6.00;76.40;;;;;;4999978;28;20191;-87
2022/02/25 07:15:29;;;;;;;8.45;2.47;;;6.00;76.50;;;;;;4999922;28;20186;-87
2022/02/25 07:17:55;;;;;;;7.18;2.83;;;6.00;76.50;;;;;;5019103;28;20578;-87
2022/02/25 07:20:21;;;;;;;10.85;3.05;;;6.00;76.60;;;;;;5000384;28;20183;-87
2022/02/25 07:22:47;;;;;;;11.32;3.05;;;6.00;76.60;;;;;;5000209;28;20209;-87
2022/02/25 07:25:13;;;;;;;17.57;3.00;;;6.10;76.60;;;;;;4988711;28;20187;-86
2022/02/25 07:27:39;;;;;;;12.32;2.75;;;6.20;76.40;;;;;;4980837;28;20646;-87
2022/02/25 07:30:05;;;;;;;12.20;3.10;;;6.30;76.10;;;;;;4981149;28;20211;-87
2022/02/25 07:32:32;;;;;;;13.60;3.45;;;6.40;76.10;;;;;;4979506;28;20660;-87
2022/02/25 07:34:58;;;;;;;20.20;4.03;;;6.50;76.00;;;;;;4980988;28;20179;-86
2022/02/25 07:37:24;;;;;;;16.87;3.47;;;6.50;75.60;;;;;;4982274;28;20698;-87
2022/02/25 07:39:49;;;;;;;17.53;3.40;;;6.40;75.40;;;;;;4981352;28;20175;-87
2022/02/25 07:42:15;;;;;;;7.63;2.93;;;6.60;75.50;;;;;;4997620;28;20437;-86
2022/02/25 07:44:41;;;;;;;8.93;3.50;;;6.50;75.20;;;;;;4980315;28;20202;-87
2022/02/25 07:47:07;;;;;;;12.03;3.40;;;6.50;75.10;;;;;;4995249;28;20434;-86
2022/02/25 07:49:32;;;;;;;13.57;3.13;;;6.50;75.10;;;;;;4998857;28;20674;-86
2022/02/25 07:51:58;;;;;;;12.03;3.73;;;6.50;74.80;;;;;;4998700;28;20189;-87
2022/02/25 07:54:25;;;;;;;18.40;3.63;;;6.60;75.10;;;;;;4998662;28;20445;-86
2022/02/25 07:56:51;;;;;;;10.70;3.25;;;6.70;75.00;;;;;;4999156;28;20194;-87
2022/02/25 07:59:17;;;;;;;16.85;3.70;;;6.70;74.70;;;;;;4999892;28;20229;-86
2022/02/25 08:01:43;;;;;;;8.18;2.83;;;6.70;74.50;;;;;;5017559;28;20186;-87
2022/02/25 08:04:09;;;;;;;12.93;3.47;;;6.80;74.40;;;;;;4998926;28;20218;-87
2022/02/25 08:06:35;;;;;;;20.40;4.15;;;6.80;74.30;;;;;;5001550;28;20200;-87
2022/02/25 08:09:04;;;;;;;15.23;3.30;;;6.90;74.10;;;;;;5016810;28;20225;-86
2022/02/25 08:11:30;;;;;;;18.58;3.70;;;7.00;73.90;;;;;;4998732;28;20556;-86
2022/02/25 08:13:56;;;;;;;23.67;3.83;;;7.00;73.60;;;;;;4998546;28;20199;-87
2022/02/25 08:16:22;;;;;;;11.20;4.07;;;6.90;73.60;;;;;;5016892;28;20658;-87
2022/02/25 08:18:48;;;;;;;9.13;2.95;;;6.80;73.70;;;;;;4982162;28;20432;-87
2022/02/25 08:21:14;;;;;;;16.50;3.65;;;6.90;73.90;;;;;;4997820;28;20186;-86
2022/02/25 08:23:40;;;;;;;9.40;3.50;;;7.00;73.90;;;;;;4997870;28;20202;-86
2022/02/25 08:26:05;;;;;;;15.67;3.23;;;7.10;73.60;;;;;;4996888;28;20184;-87
2022/02/25 08:28:31;;;;;;;17.43;4.87;;;7.20;73.50;;;;;;4978591;28;20422;-87
2022/02/25 08:30:57;;;;;;;16.92;3.85;;;7.20;73.20;;;;;;4978959;28;20259;-87
2022/02/25 08:33:23;;;;;;;17.57;3.87;;;7.30;73.20;;;;;;4978332;28;20199;-86
2022/02/25 08:35:49;;;;;;;15.17;3.73;;;7.30;73.20;;;;;;4978972;28;20854;-86
2022/02/25 08:38:17;;;;;;;11.00;3.27;;;7.30;73.10;;;;;;4979625;28;20175;-87
2022/02/25 08:40:43;;;;;;;19.60;4.72;;;7.40;73.10;;;;;;4980604;28;20187;-87
2022/02/25 08:43:09;;;;;;;10.90;4.10;;;7.50;73.10;;;;;;4984387;28;20219;-86
2022/02/25 08:45:35;;;;;;;26.77;4.03;;;7.70;72.60;;;;;;4983880;28;20252;-86
2022/02/25 08:48:02;;;;;;;16.90;3.05;;;7.70;71.80;;;;;;4999306;28;20187;-87
2022/02/25 08:50:28;;;;;;;20.45;3.00;;;7.70;71.70;;;;;;4998022;28;20206;-87
2022/02/25 08:52:55;;;;;;;14.48;3.75;;;7.60;71.70;;;;;;5016990;28;20674;-86
2022/02/25 08:55:22;;;;;;;17.25;3.60;;;7.70;71.70;;;;;;5017610;28;20205;-87
2022/02/25 08:57:48;;;;;;;25.83;5.22;;;7.80;71.70;;;;;;4997957;28;20182;-87
2022/02/25 09:00:17;;;;;;;19.92;4.13;;;8.00;71.70;;;;;;5006812;28;20204;-87
2022/02/25 09:02:44;;;;;;;13.18;3.60;;;8.00;71.30;;;;;;5000955;28;20217;-86
2022/02/25 09:05:10;;;;;;;12.93;3.58;;;8.20;70.80;;;;;;5019746;28;20177;-87
2022/02/25 09:07:36;;;;;;;20.45;3.80;;;8.30;70.30;;;;;;5036040;28;20185;-87
2022/02/25 09:10:04;;;;;;;12.40;4.50;;;8.40;70.10;;;;;;5035103;28;20210;-87
2022/02/25 09:12:30;;;;;;;16.65;3.58;;;8.50;70.10;;;;;;5017177;28;20654;-86
2022/02/25 09:14:56;;;;;;;18.70;4.70;;;8.50;69.90;;;;;;5019771;28;20200;-87
2022/02/25 09:17:22;;;;;;;12.63;5.30;;;8.60;69.90;;;;;;5021344;28;20182;-86
2022/02/25 09:19:48;;;;;;;26.43;4.97;;;8.70;69.40;;;;;;5036674;28;20185;-87
2022/02/25 09:22:14;;;;;;;12.48;3.85;;;8.60;69.00;;;;;;5002663;28;20421;-87
2022/02/25 09:24:40;;;;;;;15.73;3.67;;;8.60;69.00;;;;;;4990110;28;20203;-87
2022/02/25 09:27:05;;;;;;;18.17;4.17;;;8.70;69.10;;;;;;4978500;28;20222;-87
2022/02/25 09:29:31;;;;;;;22.80;3.77;;;8.70;68.90;;;;;;4996886;28;20203;-87
2022/02/25 09:31:57;;;;;;;12.60;3.83;;;8.80;68.70;;;;;;4999608;28;20167;-86
2022/02/25 09:34:23;;;;;;;19.33;4.15;;;8.90;68.80;;;;;;4994682;28;20206;-86
2022/02/25 09:36:49;;;;;;;9.20;3.47;;;9.10;68.70;;;;;;4996512;28;20247;-86
2022/02/25 09:39:14;;;;;;;13.13;3.30;;;9.00;68.00;;;;;;4992972;28;20183;-87
2022/02/25 09:41:42;;;;;;;13.23;3.10;;;9.00;67.80;;;;;;4982750;28;20628;-87
2022/02/25 09:44:08;;;;;;;16.63;3.22;;;9.10;67.90;;;;;;4980870;28;20218;-87
2022/02/25 09:46:34;;;;;;;16.97;3.03;;;9.20;68.00;;;;;;4983641;28;20241;-87
2022/02/25 09:49:00;;;;;;;11.65;2.92;;;9.20;67.60;;;;;;4985212;28;20548;-88
2022/02/25 09:51:27;;;;;;;9.63;3.03;;;9.00;67.40;;;;;;4985487;28;20274;-87
2022/02/25 09:53:55;;;;;;;12.55;2.72;;;8.80;67.00;;;;;;4981747;28;20221;-87
2022/02/25 09:56:25;;;;;;;19.63;2.90;;;8.80;67.40;;;;;;4982892;28;20156;-87
2022/02/25 09:58:51;;;;;;;18.60;3.72;;;8.90;66.90;;;;;;4982755;28;20175;-87
2022/02/25 10:01:18;;;;;;;9.65;3.08;;;9.00;67.00;;;;;;4981839;28;20246;-87
2022/02/25 10:03:51;;;;;;;13.27;2.40;;;8.80;66.70;;;;;;4981459;28;20230;-87
2022/02/25 10:06:16;;;;;;;11.30;2.15;;;8.90;66.90;;;;;;4982951;28;20179;-87
2022/02/25 10:08:43;;;;;;;8.50;2.37;;;8.90;67.00;;;;;;4984364;28;20187;-87
2022/02/25 10:11:09;;;;;;;17.67;3.47;;;8.80;67.00;;;;;;4985517;28;20556;-87
2022/02/25 10:13:35;;;;;;;10.00;2.90;;;8.80;67.30;;;;;;4987811;28;20246;-87
2022/02/25 10:16:08;;;;;;;11.63;2.65;;;8.90;67.60;;;;;;4988959;28;20418;-87
2022/02/25 10:18:34;;;;;;;21.17;2.47;;;8.80;67.10;;;;;;5002754;28;20175;-87
2022/02/25 10:21:08;;;;;;;9.50;2.60;;;8.90;66.90;;;;;;5001051;28;20166;-87
2022/02/25 10:23:45;;;;;;;9.20;2.67;;;8.90;66.90;;;;;;5000725;28;20194;-87
2022/02/25 10:26:21;;;;;;;18.05;3.97;;;8.80;67.20;;;;;;5000819;28;20179;-87
2022/02/25 10:28:53;;;;;;;12.60;3.03;;;8.80;67.30;;;;;;5001482;28;20205;-87
2022/02/25 10:31:33;;;;;;;14.73;2.47;;;9.10;67.40;;;;;;5002256;28;20174;-87
2022/02/25 10:34:13;;;;;;;12.20;2.05;;;9.10;66.50;;;;;;5002356;28;20206;-87
2022/02/25 10:36:53;;;;;;;14.82;2.50;;;9.00;65.80;;;;;;5000925;28;20265;-87
2022/02/25 10:39:24;;;;;;;5.57;2.47;;;9.10;65.80;;;;;;5022623;28;20173;-86
2022/02/25 10:42:15;;;;;;;15.18;2.45;;;9.30;65.90;;;;;;5005907;28;20266;-87
2022/02/25 10:44:45;;;;;;;13.27;2.58;;;9.30;65.60;;;;;;5003037;28;20206;-87
2022/02/25 10:47:20;;;;;;;11.48;2.80;;;9.20;65.40;;;;;;5002403;28;20183;-87
2022/02/25 10:49:49;;;;;;;9.23;2.20;;;9.10;65.60;;;;;;5000527;28;20682;-87
2022/02/25 10:52:30;;;;;;;7.75;2.83;;;8.90;65.50;;;;;;5000261;28;20187;-87
2022/02/25 10:54:59;;;;;;;10.57;1.85;;;9.10;65.90;;;;;;4999435;28;20202;-87
2022/02/25 10:57:26;;;;;;;17.58;2.50;;;9.30;65.50;;;;;;4999508;28;20690;-87
2022/02/25 10:59:52;;;;;;;16.77;2.30;;;9.30;64.70;;;;;;4999250;28;20277;-87
2022/02/25 11:02:38;;;;;;;13.65;2.50;;;9.40;64.00;;;;;;5017390;28;20182;-87
2022/02/25 11:05:06;;;;;;;7.30;2.53;;;9.40;63.80;;;;;;5016439;28;20174;-87
2022/02/25 11:07:34;;;;;;;12.88;2.75;;;9.40;63.90;;;;;;4999134;28;20186;-87
2022/02/25 11:10:00;;;;;;;15.73;2.40;;;9.30;63.70;;;;;;5016670;28;20395;-87
2022/02/25 11:12:28;;;;;;;12.52;2.40;;;9.10;64.20;;;;;;4999018;28;20564;-86
2022/02/25 11:14:59;;;;;;;14.05;3.55;;;9.00;63.80;;;;;;4999267;28;20179;-86
2022/02/25 11:17:25;;;;;;;9.88;2.67;;;9.00;64.30;;;;;;4998664;28;20181;-87
2022/02/25 11:19:55;;;;;;;4.70;2.40;;;9.00;64.40;;;;;;4998092;28;20237;-87
2022/02/25 11:22:22;;;;;;;3.55;2.00;;;8.80;65.00;;;;;;4998254;28;20189;-86
2022/02/25 11:24:48;;;;;;;9.80;3.05;;;8.80;65.40;;;;;;4998001;28;20194;-87
2022/02/25 11:27:14;;;;;;;15.05;2.42;;;8.90;65.50;;;;;;4998304;28;20189;-86
2022/02/25 11:30:02;;;;;;;7.15;2.05;;;8.90;64.80;;;;;;4998406;28;20210;-87
2022/02/25 11:32:42;;;;;;;9.10;2.25;;;8.70;64.80;;;;;;4990427;28;20237;-87
2022/02/25 11:35:46;;;;;;;9.52;2.60;;;8.80;64.80;;;;;;4997893;28;20277;-86
2022/02/25 11:38:11;;;;;;;12.13;3.22;;;9.00;65.20;;;;;;4993523;28;20233;-86
2022/02/25 11:40:56;;;;;;;8.50;1.87;;;8.80;64.80;;;;;;5015242;28;20186;-87
2022/02/25 11:43:46;;;;;;;6.95;2.53;;;8.70;65.20;;;;;;4996780;28;20276;-88
2022/02/25 11:46:28;;;;;;;5.50;2.10;;;8.70;64.80;;;;;;5008210;28;20198;-86
2022/02/25 11:49:08;;;;;;;11.85;3.65;;;8.60;64.70;;;;;;5004200;28;20211;-87
2022/02/25 11:51:52;;;;;;;11.45;2.25;;;8.60;65.30;;;;;;5015419;28;20170;-86
2022/02/25 11:54:23;;;;;;;11.43;3.03;;;8.50;65.40;;;;;;4995925;28;20298;-87
2022/02/25 11:57:10;;;;;;;14.60;1.95;;;8.60;65.00;;;;;;4997697;28;20187;-86
2022/02/25 11:59:36;;;;;;;16.95;2.00;;;8.50;64.30;;;;;;5014656;28;20186;-87
2022/02/25 12:02:08;;;;;;;7.93;2.50;;;8.60;64.50;;;;;;4999911;28;20655;-87
2022/02/25 12:04:38;;;;;;;21.20;3.08;;;8.50;64.40;;;;;;5001464;28;20500;-87
2022/02/25 12:07:30;;;;;;;6.78;2.35;;;8.70;64.50;;;;;;5020257;28;20232;-86
2022/02/25 12:09:59;;;;;;;6.30;1.80;;;8.70;64.30;;;;;;5022507;28;20293;-87
2022/02/25 12:12:24;;;;;;;12.27;2.47;;;8.80;64.70;;;;;;5023099;28;20205;-86
2022/02/25 12:15:00;;;;;;;12.67;3.00;;;9.10;64.50;;;;;;5003457;28;20171;-86
2022/02/25 12:17:54;;;;;;;11.48;2.58;;;9.20;63.10;;;;;;5001103;28;20174;-86
2022/02/25 12:20:27;;;;;;;11.18;3.05;;;9.30;62.90;;;;;;5011407;28;20732;-86
2022/02/25 12:23:01;;;;;;;8.25;2.42;;;9.40;63.50;;;;;;4993739;28;20206;-86
2022/02/25 12:25:39;;;;;;;8.10;2.38;;;9.50;63.20;;;;;;5017477;28;20197;-86
2022/02/25 12:28:11;;;;;;;10.98;2.40;;;9.70;63.00;;;;;;4999502;28;20189;-87
2022/02/25 12:30:38;;;;;;;7.55;2.85;;;9.70;62.90;;;;;;5015555;28;20202;-87
2022/02/25 12:33:32;;;;;;;17.15;4.93;;;10.10;62.50;;;;;;4997115;28;20195;-86
2022/02/25 12:36:01;;;;;;;13.00;2.13;;;10.30;61.70;;;;;;5014918;28;20266;-87
2022/02/25 12:38:29;;;;;;;7.28;1.70;;;10.20;60.80;;;;;;4997806;28;20241;-87
2022/02/25 12:41:10;;;;;;;25.33;4.05;;;10.10;61.60;;;;;;4997910;28;20209;-87
2022/02/25 12:43:55;;;;;;;16.15;2.85;;;9.90;62.40;;;;;;5010766;28;20277;-86
2022/02/25 12:46:24;;;;;;;9.93;3.03;;;9.60;63.90;;;;;;5031649;28;20177;-87
2022/02/25 12:48:51;;;;;;;9.07;3.10;;;9.50;65.40;;;;;;5016917;28;20255;-86
2022/02/25 12:51:18;;;;;;;9.32;2.92;;;9.50;66.10;;;;;;4998549;28;20202;-87
2022/02/25 12:53:50;;;;;;;12.32;2.30;;;9.30;65.80;;;;;;5006126;28;20201;-87
2022/02/25 12:56:30;;;;;;;16.35;2.80;;;9.30;66.10;;;;;;5035293;28;20189;-87
2022/02/25 12:59:05;;;;;;;13.68;2.90;;;9.40;65.70;;;;;;5016915;28;20174;-86
2022/02/25 13:01:33;;;;;;;11.93;2.53;;;9.60;66.00;;;;;;5017683;28;20653;-87